sensor_id;sensor_type;location;lat;lon;timestamp;temperature;humidity
26707;DHT22;14319;49.422;10.934;2022-07-30T00:00:19;17.60;96.30
26707;DHT22;14319;49.422;10.934;2022-07-30T00:08:56;17.60;96.90
26707;DHT22;14319;49.422;10.934;2022-07-30T00:10:58;17.50;95.30
26707;DHT22;14319;49.422;10.934;2022-07-30T00:12:58;17.40;96.10
26707;DHT22;14319;49.422;10.934;2022-07-30T00:14:59;17.50;96.60
26707;DHT22;14319;49.422;10.934;2022-07-30T00:17:01;17.50;96.30
26707;DHT22;14319;49.422;10.934;2022-07-30T00:19:02;17.50;95.50
26707;DHT22;14319;49.422;10.934;2022-07-30T00:21:03;17.50;95.40
26707;DHT22;14319;49.422;10.934;2022-07-30T00:23:04;17.60;94.60
26707;DHT22;14319;49.422;10.934;2022-07-30T00:25:05;17.50;93.80
26707;DHT22;14319;49.422;10.934;2022-07-30T00:27:06;17.50;94.60
26707;DHT22;14319;49.422;10.934;2022-07-30T00:29:07;17.50;94.10
26707;DHT22;14319;49.422;10.934;2022-07-30T00:31:08;17.50;94.10
26707;DHT22;14319;49.422;10.934;2022-07-30T00:33:09;17.40;95.60
26707;DHT22;14319;49.422;10.934;2022-07-30T00:35:09;17.40;96.30
26707;DHT22;14319;49.422;10.934;2022-07-30T00:37:10;17.30;95.70
26707;DHT22;14319;49.422;10.934;2022-07-30T00:39:11;17.20;96.50
26707;DHT22;14319;49.422;10.934;2022-07-30T00:41:12;17.20;96.80
26707;DHT22;14319;49.422;10.934;2022-07-30T00:43:17;17.20;96.50
26707;DHT22;14319;49.422;10.934;2022-07-30T00:45:18;17.20;95.70
26707;DHT22;14319;49.422;10.934;2022-07-30T00:47:19;17.30;96.90
26707;DHT22;14319;49.422;10.934;2022-07-30T00:49:20;17.40;95.70
26707;DHT22;14319;49.422;10.934;2022-07-30T00:51:22;17.30;92.70
26707;DHT22;14319;49.422;10.934;2022-07-30T00:53:22;17.20;93.40
26707;DHT22;14319;49.422;10.934;2022-07-30T00:55:23;17.10;94.20
26707;DHT22;14319;49.422;10.934;2022-07-30T00:57:27;17.00;95.80
26707;DHT22;14319;49.422;10.934;2022-07-30T00:59:27;17.10;95.40
26707;DHT22;14319;49.422;10.934;2022-07-30T01:01:31;17.10;96.30
26707;DHT22;14319;49.422;10.934;2022-07-30T01:03:32;17.10;95.80
26707;DHT22;14319;49.422;10.934;2022-07-30T01:05:33;17.00;96.10
26707;DHT22;14319;49.422;10.934;2022-07-30T01:07:34;17.00;97.90
26707;DHT22;14319;49.422;10.934;2022-07-30T01:09:37;16.90;98.00
26707;DHT22;14319;49.422;10.934;2022-07-30T01:11:40;16.80;98.40
26707;DHT22;14319;49.422;10.934;2022-07-30T01:13:42;16.80;99.90
26707;DHT22;14319;49.422;10.934;2022-07-30T01:15:43;16.90;99.20
26707;DHT22;14319;49.422;10.934;2022-07-30T01:17:47;16.90;97.50
26707;DHT22;14319;49.422;10.934;2022-07-30T01:19:50;16.90;97.30
26707;DHT22;14319;49.422;10.934;2022-07-30T01:24:37;17.10;97.20
26707;DHT22;14319;49.422;10.934;2022-07-30T01:26:39;16.80;97.70
26707;DHT22;14319;49.422;10.934;2022-07-30T01:28:47;16.90;97.80
26707;DHT22;14319;49.422;10.934;2022-07-30T01:30:49;17.00;97.80
26707;DHT22;14319;49.422;10.934;2022-07-30T01:32:52;17.10;97.50
26707;DHT22;14319;49.422;10.934;2022-07-30T01:34:56;17.00;96.40
26707;DHT22;14319;49.422;10.934;2022-07-30T01:36:59;16.90;97.80
26707;DHT22;14319;49.422;10.934;2022-07-30T01:39:01;16.80;96.40
26707;DHT22;14319;49.422;10.934;2022-07-30T01:41:02;16.70;96.60
26707;DHT22;14319;49.422;10.934;2022-07-30T01:43:05;16.70;97.10
26707;DHT22;14319;49.422;10.934;2022-07-30T01:45:08;16.70;97.50
26707;DHT22;14319;49.422;10.934;2022-07-30T01:47:12;16.70;96.60
26707;DHT22;14319;49.422;10.934;2022-07-30T01:49:14;16.60;96.30
26707;DHT22;14319;49.422;10.934;2022-07-30T01:51:17;16.50;95.60
26707;DHT22;14319;49.422;10.934;2022-07-30T01:53:28;16.40;97.60
26707;DHT22;14319;49.422;10.934;2022-07-30T01:55:33;16.50;97.20
26707;DHT22;14319;49.422;10.934;2022-07-30T01:57:35;16.40;95.40
26707;DHT22;14319;49.422;10.934;2022-07-30T01:59:38;16.30;97.60
26707;DHT22;14319;49.422;10.934;2022-07-30T02:01:39;16.30;98.40
26707;DHT22;14319;49.422;10.934;2022-07-30T02:03:42;16.30;98.20
26707;DHT22;14319;49.422;10.934;2022-07-30T02:06:10;16.00;99.40
26707;DHT22;14319;49.422;10.934;2022-07-30T02:08:15;16.10;99.90
26707;DHT22;14319;49.422;10.934;2022-07-30T02:10:32;16.30;99.90
26707;DHT22;14319;49.422;10.934;2022-07-30T02:12:38;16.30;99.00
26707;DHT22;14319;49.422;10.934;2022-07-30T02:16:56;16.10;99.90
26707;DHT22;14319;49.422;10.934;2022-07-30T02:19:05;16.10;99.90
26707;DHT22;14319;49.422;10.934;2022-07-30T02:21:11;16.20;99.90
26707;DHT22;14319;49.422;10.934;2022-07-30T02:23:14;16.30;99.90
26707;DHT22;14319;49.422;10.934;2022-07-30T02:25:18;16.30;99.90
26707;DHT22;14319;49.422;10.934;2022-07-30T02:27:31;16.30;99.90
26707;DHT22;14319;49.422;10.934;2022-07-30T02:29:35;16.30;99.90
26707;DHT22;14319;49.422;10.934;2022-07-30T02:31:38;16.50;99.90
26707;DHT22;14319;49.422;10.934;2022-07-30T02:33:42;16.60;99.90
26707;DHT22;14319;49.422;10.934;2022-07-30T02:35:44;16.60;99.90
26707;DHT22;14319;49.422;10.934;2022-07-30T02:37:47;16.70;99.40
26707;DHT22;14319;49.422;10.934;2022-07-30T02:39:50;16.80;98.80
26707;DHT22;14319;49.422;10.934;2022-07-30T02:41:52;16.80;98.30
26707;DHT22;14319;49.422;10.934;2022-07-30T02:43:54;16.90;98.20
26707;DHT22;14319;49.422;10.934;2022-07-30T02:45:57;17.00;97.10
26707;DHT22;14319;49.422;10.934;2022-07-30T02:48:09;16.90;96.50
26707;DHT22;14319;49.422;10.934;2022-07-30T02:50:12;16.90;96.10
26707;DHT22;14319;49.422;10.934;2022-07-30T02:52:14;16.90;96.70
26707;DHT22;14319;49.422;10.934;2022-07-30T02:54:18;16.90;96.60
26707;DHT22;14319;49.422;10.934;2022-07-30T02:56:20;16.70;95.90
26707;DHT22;14319;49.422;10.934;2022-07-30T02:58:23;16.40;96.50
26707;DHT22;14319;49.422;10.934;2022-07-30T03:00:26;16.30;97.90
26707;DHT22;14319;49.422;10.934;2022-07-30T03:02:28;16.40;98.20
26707;DHT22;14319;49.422;10.934;2022-07-30T03:04:30;16.40;98.30
26707;DHT22;14319;49.422;10.934;2022-07-30T03:06:31;16.40;98.60
26707;DHT22;14319;49.422;10.934;2022-07-30T03:08:34;16.50;97.00
26707;DHT22;14319;49.422;10.934;2022-07-30T03:10:35;16.60;96.80
26707;DHT22;14319;49.422;10.934;2022-07-30T03:12:38;16.70;96.00
26707;DHT22;14319;49.422;10.934;2022-07-30T03:14:40;16.70;94.90
26707;DHT22;14319;49.422;10.934;2022-07-30T03:16:43;16.80;94.60
26707;DHT22;14319;49.422;10.934;2022-07-30T03:18:46;16.80;94.50
26707;DHT22;14319;49.422;10.934;2022-07-30T03:20:50;16.80;94.60
26707;DHT22;14319;49.422;10.934;2022-07-30T03:22:53;16.80;94.60
26707;DHT22;14319;49.422;10.934;2022-07-30T03:24:54;16.80;94.10
26707;DHT22;14319;49.422;10.934;2022-07-30T03:26:57;16.80;94.20
26707;DHT22;14319;49.422;10.934;2022-07-30T03:29:01;16.80;94.20
26707;DHT22;14319;49.422;10.934;2022-07-30T03:31:03;16.70;93.50
26707;DHT22;14319;49.422;10.934;2022-07-30T03:33:05;16.60;94.10
26707;DHT22;14319;49.422;10.934;2022-07-30T03:35:07;16.50;92.90
26707;DHT22;14319;49.422;10.934;2022-07-30T03:37:09;16.50;94.80
26707;DHT22;14319;49.422;10.934;2022-07-30T03:39:11;16.40;93.50
26707;DHT22;14319;49.422;10.934;2022-07-30T03:41:13;16.40;94.60
26707;DHT22;14319;49.422;10.934;2022-07-30T03:43:18;16.40;94.40
26707;DHT22;14319;49.422;10.934;2022-07-30T03:45:19;16.40;94.20
26707;DHT22;14319;49.422;10.934;2022-07-30T03:47:21;16.40;94.80
26707;DHT22;14319;49.422;10.934;2022-07-30T03:49:23;16.40;94.40
26707;DHT22;14319;49.422;10.934;2022-07-30T03:51:25;16.40;95.10
26707;DHT22;14319;49.422;10.934;2022-07-30T03:53:28;16.40;95.40
26707;DHT22;14319;49.422;10.934;2022-07-30T03:56:02;16.40;94.70
26707;DHT22;14319;49.422;10.934;2022-07-30T03:58:31;16.50;95.50
26707;DHT22;14319;49.422;10.934;2022-07-30T04:00:32;16.50;94.90
26707;DHT22;14319;49.422;10.934;2022-07-30T04:02:42;16.50;95.30
26707;DHT22;14319;49.422;10.934;2022-07-30T04:05:01;16.40;94.50
26707;DHT22;14319;49.422;10.934;2022-07-30T04:07:02;16.40;95.00
26707;DHT22;14319;49.422;10.934;2022-07-30T04:09:03;16.40;95.10
26707;DHT22;14319;49.422;10.934;2022-07-30T04:11:05;16.40;95.60
26707;DHT22;14319;49.422;10.934;2022-07-30T04:13:15;16.30;95.50
26707;DHT22;14319;49.422;10.934;2022-07-30T04:15:15;16.30;96.30
26707;DHT22;14319;49.422;10.934;2022-07-30T04:19:50;16.10;97.70
26707;DHT22;14319;49.422;10.934;2022-07-30T04:21:53;16.10;98.30
26707;DHT22;14319;49.422;10.934;2022-07-30T04:23:56;16.20;98.30
26707;DHT22;14319;49.422;10.934;2022-07-30T04:26:00;16.20;97.90
26707;DHT22;14319;49.422;10.934;2022-07-30T04:28:03;16.10;98.40
26707;DHT22;14319;49.422;10.934;2022-07-30T04:30:06;16.20;98.10
26707;DHT22;14319;49.422;10.934;2022-07-30T04:32:11;16.20;98.40
26707;DHT22;14319;49.422;10.934;2022-07-30T04:34:32;16.20;98.90
26707;DHT22;14319;49.422;10.934;2022-07-30T04:36:33;16.30;97.30
26707;DHT22;14319;49.422;10.934;2022-07-30T04:38:35;16.30;97.50
26707;DHT22;14319;49.422;10.934;2022-07-30T04:40:36;16.40;98.00
26707;DHT22;14319;49.422;10.934;2022-07-30T04:42:37;16.50;97.60
26707;DHT22;14319;49.422;10.934;2022-07-30T04:44:43;16.50;96.50
26707;DHT22;14319;49.422;10.934;2022-07-30T04:47:07;16.50;97.80
26707;DHT22;14319;49.422;10.934;2022-07-30T04:49:15;16.40;98.00
26707;DHT22;14319;49.422;10.934;2022-07-30T04:51:27;16.40;97.70
26707;DHT22;14319;49.422;10.934;2022-07-30T04:53:29;16.30;98.10
26707;DHT22;14319;49.422;10.934;2022-07-30T04:55:34;16.30;98.60
26707;DHT22;14319;49.422;10.934;2022-07-30T04:57:37;16.30;97.90
26707;DHT22;14319;49.422;10.934;2022-07-30T04:59:40;16.40;98.10
26707;DHT22;14319;49.422;10.934;2022-07-30T05:01:44;16.40;97.50
26707;DHT22;14319;49.422;10.934;2022-07-30T05:03:46;16.40;97.10
26707;DHT22;14319;49.422;10.934;2022-07-30T05:05:48;16.40;97.50
26707;DHT22;14319;49.422;10.934;2022-07-30T05:07:50;16.40;97.70
26707;DHT22;14319;49.422;10.934;2022-07-30T05:09:51;16.30;98.20
26707;DHT22;14319;49.422;10.934;2022-07-30T05:11:53;16.30;98.10
26707;DHT22;14319;49.422;10.934;2022-07-30T05:13:54;16.30;98.50
26707;DHT22;14319;49.422;10.934;2022-07-30T05:15:56;16.40;98.40
26707;DHT22;14319;49.422;10.934;2022-07-30T05:17:58;16.40;98.10
26707;DHT22;14319;49.422;10.934;2022-07-30T05:19:59;16.40;98.00
26707;DHT22;14319;49.422;10.934;2022-07-30T05:22:01;16.40;98.70
26707;DHT22;14319;49.422;10.934;2022-07-30T05:24:03;16.40;97.90
26707;DHT22;14319;49.422;10.934;2022-07-30T05:26:13;16.30;98.70
26707;DHT22;14319;49.422;10.934;2022-07-30T05:28:17;16.30;99.20
26707;DHT22;14319;49.422;10.934;2022-07-30T05:30:21;16.30;99.30
26707;DHT22;14319;49.422;10.934;2022-07-30T05:32:23;16.30;99.90
26707;DHT22;14319;49.422;10.934;2022-07-30T05:34:24;16.30;99.20
26707;DHT22;14319;49.422;10.934;2022-07-30T05:36:27;16.50;99.20
26707;DHT22;14319;49.422;10.934;2022-07-30T05:38:28;16.50;99.20
26707;DHT22;14319;49.422;10.934;2022-07-30T05:40:59;16.60;98.50
26707;DHT22;14319;49.422;10.934;2022-07-30T05:43:23;16.50;98.60
26707;DHT22;14319;49.422;10.934;2022-07-30T05:45:24;16.70;98.60
26707;DHT22;14319;49.422;10.934;2022-07-30T05:47:25;16.80;98.60
26707;DHT22;14319;49.422;10.934;2022-07-30T05:49:26;16.70;97.40
26707;DHT22;14319;49.422;10.934;2022-07-30T05:51:34;16.80;96.50
26707;DHT22;14319;49.422;10.934;2022-07-30T05:53:34;16.80;97.80
26707;DHT22;14319;49.422;10.934;2022-07-30T05:55:55;16.90;98.30
26707;DHT22;14319;49.422;10.934;2022-07-30T05:58:15;16.90;97.60
26707;DHT22;14319;49.422;10.934;2022-07-30T06:00:17;16.90;97.00
26707;DHT22;14319;49.422;10.934;2022-07-30T06:02:18;16.90;97.70
26707;DHT22;14319;49.422;10.934;2022-07-30T06:04:37;17.00;96.70
26707;DHT22;14319;49.422;10.934;2022-07-30T06:06:39;17.00;96.50
26707;DHT22;14319;49.422;10.934;2022-07-30T06:08:40;17.00;97.20
26707;DHT22;14319;49.422;10.934;2022-07-30T06:10:41;17.10;95.80
26707;DHT22;14319;49.422;10.934;2022-07-30T06:12:44;17.30;94.70
26707;DHT22;14319;49.422;10.934;2022-07-30T06:14:45;17.00;95.50
26707;DHT22;14319;49.422;10.934;2022-07-30T06:16:51;17.00;96.30
26707;DHT22;14319;49.422;10.934;2022-07-30T06:18:52;17.10;94.30
26707;DHT22;14319;49.422;10.934;2022-07-30T06:21:08;17.20;95.50
26707;DHT22;14319;49.422;10.934;2022-07-30T06:23:29;17.20;94.10
26707;DHT22;14319;49.422;10.934;2022-07-30T06:25:39;17.30;93.80
26707;DHT22;14319;49.422;10.934;2022-07-30T06:27:39;17.40;95.30
26707;DHT22;14319;49.422;10.934;2022-07-30T06:29:42;17.40;94.40
26707;DHT22;14319;49.422;10.934;2022-07-30T06:31:43;17.30;92.40
26707;DHT22;14319;49.422;10.934;2022-07-30T06:33:45;17.20;91.90
26707;DHT22;14319;49.422;10.934;2022-07-30T06:35:46;17.00;93.30
26707;DHT22;14319;49.422;10.934;2022-07-30T06:37:51;16.90;95.10
26707;DHT22;14319;49.422;10.934;2022-07-30T06:39:52;16.70;94.30
26707;DHT22;14319;49.422;10.934;2022-07-30T06:41:53;16.80;94.20
26707;DHT22;14319;49.422;10.934;2022-07-30T06:43:54;16.80;93.40
26707;DHT22;14319;49.422;10.934;2022-07-30T06:46:33;16.80;94.00
26707;DHT22;14319;49.422;10.934;2022-07-30T06:48:34;16.80;95.20
26707;DHT22;14319;49.422;10.934;2022-07-30T06:50:38;17.00;96.30
26707;DHT22;14319;49.422;10.934;2022-07-30T06:52:41;17.30;92.60
26707;DHT22;14319;49.422;10.934;2022-07-30T06:54:42;17.30;92.20
26707;DHT22;14319;49.422;10.934;2022-07-30T06:56:49;17.40;92.30
26707;DHT22;14319;49.422;10.934;2022-07-30T06:58:50;17.50;90.90
26707;DHT22;14319;49.422;10.934;2022-07-30T07:01:09;17.50;90.40
26707;DHT22;14319;49.422;10.934;2022-07-30T07:03:10;17.60;90.10
26707;DHT22;14319;49.422;10.934;2022-07-30T07:05:12;17.80;91.40
26707;DHT22;14319;49.422;10.934;2022-07-30T07:07:15;18.00;89.50
26707;DHT22;14319;49.422;10.934;2022-07-30T07:09:16;17.70;90.00
26707;DHT22;14319;49.422;10.934;2022-07-30T07:11:24;17.60;92.90
26707;DHT22;14319;49.422;10.934;2022-07-30T07:13:28;17.60;93.20
26707;DHT22;14319;49.422;10.934;2022-07-30T07:15:29;17.50;91.90
26707;DHT22;14319;49.422;10.934;2022-07-30T07:17:30;17.40;91.50
26707;DHT22;14319;49.422;10.934;2022-07-30T07:19:31;17.20;93.20
26707;DHT22;14319;49.422;10.934;2022-07-30T07:21:32;17.40;94.90
26707;DHT22;14319;49.422;10.934;2022-07-30T07:23:33;17.50;92.40
26707;DHT22;14319;49.422;10.934;2022-07-30T07:25:35;17.40;92.70
26707;DHT22;14319;49.422;10.934;2022-07-30T07:27:36;17.50;93.70
26707;DHT22;14319;49.422;10.934;2022-07-30T07:29:37;17.80;92.10
26707;DHT22;14319;49.422;10.934;2022-07-30T07:31:38;17.80;88.50
26707;DHT22;14319;49.422;10.934;2022-07-30T07:33:39;17.90;90.40
26707;DHT22;14319;49.422;10.934;2022-07-30T07:35:41;18.00;89.10
26707;DHT22;14319;49.422;10.934;2022-07-30T07:37:42;18.10;86.80
26707;DHT22;14319;49.422;10.934;2022-07-30T07:39:48;18.30;87.30
26707;DHT22;14319;49.422;10.934;2022-07-30T07:41:50;18.10;88.00
26707;DHT22;14319;49.422;10.934;2022-07-30T07:43:56;18.20;86.40
26707;DHT22;14319;49.422;10.934;2022-07-30T07:46:05;18.00;88.50
26707;DHT22;14319;49.422;10.934;2022-07-30T07:48:08;18.10;88.80
26707;DHT22;14319;49.422;10.934;2022-07-30T07:50:26;18.10;87.00
26707;DHT22;14319;49.422;10.934;2022-07-30T07:52:27;18.30;85.80
26707;DHT22;14319;49.422;10.934;2022-07-30T07:54:28;18.60;85.30
26707;DHT22;14319;49.422;10.934;2022-07-30T07:56:30;18.80;83.60
26707;DHT22;14319;49.422;10.934;2022-07-30T07:58:31;18.90;83.70
26707;DHT22;14319;49.422;10.934;2022-07-30T08:00:34;19.20;83.40
26707;DHT22;14319;49.422;10.934;2022-07-30T08:02:35;19.30;81.90
26707;DHT22;14319;49.422;10.934;2022-07-30T08:04:39;19.20;79.50
26707;DHT22;14319;49.422;10.934;2022-07-30T08:06:43;19.20;82.10
26707;DHT22;14319;49.422;10.934;2022-07-30T08:09:22;19.40;82.00
26707;DHT22;14319;49.422;10.934;2022-07-30T08:11:52;19.40;81.70
26707;DHT22;14319;49.422;10.934;2022-07-30T08:14:11;19.20;80.90
26707;DHT22;14319;49.422;10.934;2022-07-30T08:16:12;19.10;79.40
26707;DHT22;14319;49.422;10.934;2022-07-30T08:18:32;19.20;82.00
26707;DHT22;14319;49.422;10.934;2022-07-30T08:20:44;19.50;80.50
26707;DHT22;14319;49.422;10.934;2022-07-30T08:22:46;19.70;81.20
26707;DHT22;14319;49.422;10.934;2022-07-30T08:24:46;19.80;78.70
26707;DHT22;14319;49.422;10.934;2022-07-30T08:26:47;19.50;77.70
26707;DHT22;14319;49.422;10.934;2022-07-30T08:28:49;19.70;79.60
26707;DHT22;14319;49.422;10.934;2022-07-30T08:30:49;19.70;78.70
26707;DHT22;14319;49.422;10.934;2022-07-30T08:32:51;19.80;79.50
26707;DHT22;14319;49.422;10.934;2022-07-30T08:34:52;20.00;79.00
26707;DHT22;14319;49.422;10.934;2022-07-30T08:36:54;20.00;78.60
26707;DHT22;14319;49.422;10.934;2022-07-30T08:38:55;20.00;78.80
26707;DHT22;14319;49.422;10.934;2022-07-30T08:40:57;20.00;77.20
26707;DHT22;14319;49.422;10.934;2022-07-30T08:43:00;19.80;76.60
26707;DHT22;14319;49.422;10.934;2022-07-30T08:45:01;19.80;78.20
26707;DHT22;14319;49.422;10.934;2022-07-30T08:47:03;19.80;77.60
26707;DHT22;14319;49.422;10.934;2022-07-30T08:49:28;19.80;77.80
26707;DHT22;14319;49.422;10.934;2022-07-30T08:51:30;19.60;78.00
26707;DHT22;14319;49.422;10.934;2022-07-30T08:53:51;19.70;78.20
26707;DHT22;14319;49.422;10.934;2022-07-30T08:55:52;19.80;78.10
26707;DHT22;14319;49.422;10.934;2022-07-30T08:57:54;19.90;78.00
26707;DHT22;14319;49.422;10.934;2022-07-30T08:59:57;19.90;77.30
26707;DHT22;14319;49.422;10.934;2022-07-30T09:02:00;20.00;74.60
26707;DHT22;14319;49.422;10.934;2022-07-30T09:04:01;20.20;75.80
26707;DHT22;14319;49.422;10.934;2022-07-30T09:06:04;20.40;76.30
26707;DHT22;14319;49.422;10.934;2022-07-30T09:08:04;20.50;75.30
26707;DHT22;14319;49.422;10.934;2022-07-30T09:10:08;20.40;75.00
26707;DHT22;14319;49.422;10.934;2022-07-30T09:12:32;20.40;75.30
26707;DHT22;14319;49.422;10.934;2022-07-30T09:14:33;20.50;74.40
26707;DHT22;14319;49.422;10.934;2022-07-30T09:16:35;20.30;75.60
26707;DHT22;14319;49.422;10.934;2022-07-30T09:18:39;20.20;75.90
26707;DHT22;14319;49.422;10.934;2022-07-30T09:20:40;20.40;75.10
26707;DHT22;14319;49.422;10.934;2022-07-30T09:22:45;20.20;72.20
26707;DHT22;14319;49.422;10.934;2022-07-30T09:25:39;20.00;71.80
26707;DHT22;14319;49.422;10.934;2022-07-30T09:28:00;20.30;73.90
26707;DHT22;14319;49.422;10.934;2022-07-30T09:30:48;20.60;73.30
26707;DHT22;14319;49.422;10.934;2022-07-30T09:33:09;20.60;72.60
26707;DHT22;14319;49.422;10.934;2022-07-30T09:35:40;20.50;72.00
26707;DHT22;14319;49.422;10.934;2022-07-30T09:37:45;20.50;74.00
26707;DHT22;14319;49.422;10.934;2022-07-30T09:40:18;20.60;72.00
26707;DHT22;14319;49.422;10.934;2022-07-30T09:42:39;20.60;69.10
26707;DHT22;14319;49.422;10.934;2022-07-30T09:44:42;20.40;69.20
26707;DHT22;14319;49.422;10.934;2022-07-30T09:46:47;20.50;70.90
26707;DHT22;14319;49.422;10.934;2022-07-30T09:49:13;20.60;71.90
26707;DHT22;14319;49.422;10.934;2022-07-30T09:51:15;20.70;72.10
26707;DHT22;14319;49.422;10.934;2022-07-30T09:53:16;20.50;71.10
26707;DHT22;14319;49.422;10.934;2022-07-30T09:55:34;20.50;68.70
26707;DHT22;14319;49.422;10.934;2022-07-30T09:57:59;20.80;72.10
26707;DHT22;14319;49.422;10.934;2022-07-30T10:00:19;20.90;69.90
26707;DHT22;14319;49.422;10.934;2022-07-30T10:03:21;21.10;68.10
26707;DHT22;14319;49.422;10.934;2022-07-30T10:05:53;21.20;69.20
26707;DHT22;14319;49.422;10.934;2022-07-30T10:07:59;21.20;66.00
26707;DHT22;14319;49.422;10.934;2022-07-30T10:10:00;21.50;67.40
26707;DHT22;14319;49.422;10.934;2022-07-30T10:12:04;21.60;64.70
26707;DHT22;14319;49.422;10.934;2022-07-30T10:14:07;21.80;66.30
26707;DHT22;14319;49.422;10.934;2022-07-30T10:16:09;21.90;64.10
26707;DHT22;14319;49.422;10.934;2022-07-30T10:18:10;21.80;63.70
26707;DHT22;14319;49.422;10.934;2022-07-30T10:20:32;21.50;63.90
26707;DHT22;14319;49.422;10.934;2022-07-30T10:23:05;21.60;63.60
26707;DHT22;14319;49.422;10.934;2022-07-30T10:25:09;21.40;63.20
26707;DHT22;14319;49.422;10.934;2022-07-30T10:27:39;21.40;65.60
26707;DHT22;14319;49.422;10.934;2022-07-30T10:29:57;21.70;65.00
26707;DHT22;14319;49.422;10.934;2022-07-30T10:31:59;21.70;63.20
26707;DHT22;14319;49.422;10.934;2022-07-30T10:34:00;21.60;62.40
26707;DHT22;14319;49.422;10.934;2022-07-30T10:36:01;21.60;62.40
26707;DHT22;14319;49.422;10.934;2022-07-30T10:38:03;21.70;61.60
26707;DHT22;14319;49.422;10.934;2022-07-30T10:40:26;21.60;62.30
26707;DHT22;14319;49.422;10.934;2022-07-30T10:45:19;21.30;64.80
26707;DHT22;14319;49.422;10.934;2022-07-30T10:47:24;21.50;64.90
26707;DHT22;14319;49.422;10.934;2022-07-30T10:49:25;21.40;64.50
26707;DHT22;14319;49.422;10.934;2022-07-30T10:51:46;21.50;65.00
26707;DHT22;14319;49.422;10.934;2022-07-30T10:53:47;21.40;65.00
26707;DHT22;14319;49.422;10.934;2022-07-30T10:56:21;21.30;64.30
26707;DHT22;14319;49.422;10.934;2022-07-30T10:58:21;21.40;64.20
26707;DHT22;14319;49.422;10.934;2022-07-30T11:00:22;21.40;64.60
26707;DHT22;14319;49.422;10.934;2022-07-30T11:02:25;21.30;65.40
26707;DHT22;14319;49.422;10.934;2022-07-30T11:04:28;21.40;66.50
26707;DHT22;14319;49.422;10.934;2022-07-30T11:06:29;21.50;66.10
26707;DHT22;14319;49.422;10.934;2022-07-30T11:08:43;21.40;65.90
26707;DHT22;14319;49.422;10.934;2022-07-30T11:10:48;21.40;67.50
26707;DHT22;14319;49.422;10.934;2022-07-30T11:12:53;21.50;67.90
26707;DHT22;14319;49.422;10.934;2022-07-30T11:14:54;21.10;72.30
26707;DHT22;14319;49.422;10.934;2022-07-30T11:16:58;21.00;72.10
26707;DHT22;14319;49.422;10.934;2022-07-30T11:19:13;21.20;74.40
26707;DHT22;14319;49.422;10.934;2022-07-30T11:21:18;21.30;74.10
26707;DHT22;14319;49.422;10.934;2022-07-30T11:29:35;21.10;73.40
26707;DHT22;14319;49.422;10.934;2022-07-30T11:31:38;21.00;73.50
26707;DHT22;14319;49.422;10.934;2022-07-30T11:33:39;21.00;72.50
26707;DHT22;14319;49.422;10.934;2022-07-30T11:35:40;21.00;72.40
26707;DHT22;14319;49.422;10.934;2022-07-30T11:38:07;21.20;68.60
26707;DHT22;14319;49.422;10.934;2022-07-30T11:40:08;21.40;68.40
26707;DHT22;14319;49.422;10.934;2022-07-30T11:42:27;21.50;66.60
26707;DHT22;14319;49.422;10.934;2022-07-30T11:44:28;21.70;65.60
26707;DHT22;14319;49.422;10.934;2022-07-30T11:46:29;21.90;65.60
26707;DHT22;14319;49.422;10.934;2022-07-30T11:48:30;21.90;66.70
26707;DHT22;14319;49.422;10.934;2022-07-30T11:50:33;22.10;68.00
26707;DHT22;14319;49.422;10.934;2022-07-30T11:52:34;22.30;68.20
26707;DHT22;14319;49.422;10.934;2022-07-30T11:54:53;22.50;64.50
26707;DHT22;14319;49.422;10.934;2022-07-30T11:56:55;22.70;64.00
26707;DHT22;14319;49.422;10.934;2022-07-30T11:59:05;22.90;60.60
26707;DHT22;14319;49.422;10.934;2022-07-30T12:01:14;23.10;58.20
26707;DHT22;14319;49.422;10.934;2022-07-30T12:03:17;23.30;58.20
26707;DHT22;14319;49.422;10.934;2022-07-30T12:05:25;23.40;57.70
26707;DHT22;14319;49.422;10.934;2022-07-30T12:07:26;23.40;58.30
26707;DHT22;14319;49.422;10.934;2022-07-30T12:09:27;23.60;56.60
26707;DHT22;14319;49.422;10.934;2022-07-30T12:11:32;23.60;57.00
26707;DHT22;14319;49.422;10.934;2022-07-30T12:13:34;23.30;55.00
26707;DHT22;14319;49.422;10.934;2022-07-30T12:15:45;23.20;55.30
26707;DHT22;14319;49.422;10.934;2022-07-30T12:17:46;23.10;54.30
26707;DHT22;14319;49.422;10.934;2022-07-30T12:19:47;23.10;54.00
26707;DHT22;14319;49.422;10.934;2022-07-30T12:21:48;23.00;54.10
26707;DHT22;14319;49.422;10.934;2022-07-30T12:23:57;23.00;52.90
26707;DHT22;14319;49.422;10.934;2022-07-30T12:25:58;23.00;51.80
26707;DHT22;14319;49.422;10.934;2022-07-30T12:27:59;23.10;53.90
26707;DHT22;14319;49.422;10.934;2022-07-30T12:30:00;23.20;50.30
26707;DHT22;14319;49.422;10.934;2022-07-30T12:32:01;23.00;49.80
26707;DHT22;14319;49.422;10.934;2022-07-30T12:34:02;23.10;51.50
26707;DHT22;14319;49.422;10.934;2022-07-30T12:36:03;23.20;51.00
26707;DHT22;14319;49.422;10.934;2022-07-30T12:38:04;23.30;49.50
26707;DHT22;14319;49.422;10.934;2022-07-30T12:40:12;23.30;49.50
26707;DHT22;14319;49.422;10.934;2022-07-30T12:42:17;23.10;47.80
26707;DHT22;14319;49.422;10.934;2022-07-30T12:44:35;23.30;48.10
26707;DHT22;14319;49.422;10.934;2022-07-30T12:46:38;23.30;48.60
26707;DHT22;14319;49.422;10.934;2022-07-30T12:51:07;23.30;48.00
26707;DHT22;14319;49.422;10.934;2022-07-30T12:53:09;23.40;47.90
26707;DHT22;14319;49.422;10.934;2022-07-30T12:55:11;23.60;47.10
26707;DHT22;14319;49.422;10.934;2022-07-30T12:57:12;23.80;48.00
26707;DHT22;14319;49.422;10.934;2022-07-30T12:59:22;23.90;47.10
26707;DHT22;14319;49.422;10.934;2022-07-30T13:01:44;24.00;46.50
26707;DHT22;14319;49.422;10.934;2022-07-30T13:03:45;24.00;44.70
26707;DHT22;14319;49.422;10.934;2022-07-30T13:05:48;24.00;44.30
26707;DHT22;14319;49.422;10.934;2022-07-30T13:07:56;23.80;45.20
26707;DHT22;14319;49.422;10.934;2022-07-30T13:10:11;23.80;45.90
26707;DHT22;14319;49.422;10.934;2022-07-30T13:12:12;23.70;45.00
26707;DHT22;14319;49.422;10.934;2022-07-30T13:14:14;23.80;44.80
26707;DHT22;14319;49.422;10.934;2022-07-30T13:16:17;24.10;45.60
26707;DHT22;14319;49.422;10.934;2022-07-30T13:18:19;24.30;45.30
26707;DHT22;14319;49.422;10.934;2022-07-30T13:20:20;24.30;44.20
26707;DHT22;14319;49.422;10.934;2022-07-30T13:22:21;24.20;42.60
26707;DHT22;14319;49.422;10.934;2022-07-30T13:24:22;24.20;42.00
26707;DHT22;14319;49.422;10.934;2022-07-30T13:26:23;24.20;41.60